Time;durP1;ratioP1;P1;durP2;ratioP2;P2;SDS_P1;SDS_P2;PMS_P1;PMS_P2;Temp;Humidity;BMP_temperature;BMP_pressure;BME280_temperature;BME280_humidity;BME280_pressure;Samples;Min_cycle;Max_cycle;Signal;HPM_P1;HPM_P2
2021/11/30 00:01:19;;;;;;;33.42;22.13;;;;;;;6.04;88.30;92731.19;834207;71;32722;-78
2021/11/30 05:01:08;;;;;;;2.30;2.00;;;;;;;2.70;85.25;93029.45;828068;71;28615;-79
2021/11/30 05:16:09;;;;;;;2.87;2.67;;;;;;;2.58;84.02;93075.66;827962;71;30080;-76
2021/11/30 05:31:12;;;;;;;4.60;4.20;;;;;;;2.50;82.43;93111.19;826690;71;30266;-76
2021/11/30 05:46:11;;;;;;;5.45;4.62;;;;;;;2.45;81.21;93135.28;828803;71;30419;-79
2021/11/30 06:01:12;;;;;;;4.70;4.20;;;;;;;2.36;81.02;93158.91;833799;71;30175;-79
2021/11/30 06:16:08;;;;;;;5.58;4.30;;;;;;;2.34;81.07;93214.05;833509;71;29772;-77
2021/11/30 06:31:09;;;;;;;6.70;4.90;;;;;;;2.34;80.33;93236.81;823298;71;30277;-78
2021/11/30 06:46:08;;;;;;;5.92;5.33;;;;;;;2.37;79.36;93270.44;823199;71;29597;-81
2021/11/30 07:01:13;;;;;;;5.25;4.75;;;;;;;2.40;79.53;93301.75;831806;71;30085;-81
2021/11/30 07:16:16;;;;;;;6.58;5.87;;;;;;;2.54;79.26;93323.19;820390;71;32873;-78
2021/11/30 07:31:15;;;;;;;5.60;5.00;;;;;;;2.46;77.17;93356.86;821279;71;32784;-77
2021/11/30 07:46:11;;;;;;;8.40;6.10;;;;;;;2.50;76.28;93392.83;819425;71;32539;-78
2021/11/30 08:01:12;;;;;;;10.35;7.90;;;;;;;2.38;75.94;93426.00;819574;71;31034;-79
2021/11/30 08:16:13;;;;;;;13.00;9.20;;;;;;;2.37;75.93;93457.59;824226;71;32464;-76
2021/11/30 08:31:09;;;;;;;11.85;8.93;;;;;;;2.37;76.16;93480.08;830509;71;28695;-76
2021/11/30 08:46:09;;;;;;;13.78;9.45;;;;;;;2.41;75.68;93504.41;828716;71;30180;-78
2021/11/30 09:16:16;;;;;;;9.35;8.20;;;;;;;2.52;74.23;93566.80;833755;71;32831;-77
2021/11/30 09:31:13;;;;;;;10.75;8.10;;;;;;;2.90;72.79;93572.96;827624;71;32533;-77
2021/11/30 09:46:09;;;;;;;9.55;7.42;;;;;;;3.27;71.18;93583.52;833299;71;31220;-78
2021/11/30 10:01:12;;;;;;;8.98;6.92;;;;;;;3.47;69.64;93598.20;829078;71;29322;-77
2021/11/30 10:16:10;;;;;;;7.60;6.67;;;;;;;3.79;67.67;93609.48;827672;71;30695;-77
2021/11/30 10:31:14;;;;;;;7.10;6.00;;;;;;;3.77;66.20;93628.44;829707;71;32740;-77
2021/11/30 10:46:27;;;;;;;7.87;6.22;;;;;;;4.76;64.20;93640.57;827292;71;32758;-80
2021/11/30 11:01:28;;;;;;;8.60;7.67;;;;;;;6.08;61.67;93638.22;831460;71;33257;-76
2021/11/30 11:16:10;;;;;;;9.70;7.35;;;;;;;6.26;59.21;93647.11;833453;71;30024;-78
2021/11/30 11:31:09;;;;;;;7.20;6.35;;;;;;;6.67;57.74;93661.66;826928;71;29849;-77
2021/11/30 11:46:18;;;;;;;7.70;6.25;;;;;;;6.88;55.53;93666.02;827201;71;32684;-77
2021/11/30 12:01:22;;;;;;;6.80;6.10;;;;;;;5.72;57.10;93688.09;826907;71;33220;-75
2021/11/30 12:16:11;;;;;;;8.38;6.65;;;;;;;4.71;58.51;93677.77;828737;71;29713;-78
2021/11/30 12:31:14;;;;;;;7.95;5.60;;;;;;;4.13;60.65;93713.93;827690;71;29295;-78
2021/11/30 12:46:21;;;;;;;5.50;5.10;;;;;;;3.52;62.14;93729.92;834040;71;32822;-76
2021/11/30 13:01:21;;;;;;;7.22;5.90;;;;;;;3.26;63.82;93773.25;827345;71;33225;-76
2021/11/30 13:16:09;;;;;;;5.30;4.78;;;;;;;2.87;64.03;93776.85;819158;71;29814;-79
2021/11/30 13:31:15;;;;;;;6.60;5.62;;;;;;;2.54;64.49;93769.27;825860;71;33239;-76
2021/11/30 13:46:18;;;;;;;7.25;6.03;;;;;;;2.14;64.76;93773.80;826833;71;32775;-78
2021/11/30 14:01:20;;;;;;;6.90;5.90;;;;;;;2.05;65.73;93790.32;827613;71;32756;-78
2021/11/30 14:16:08;;;;;;;6.78;6.05;;;;;;;2.02;66.68;93793.39;827628;71;29785;-79
2021/11/30 14:31:11;;;;;;;6.50;5.90;;;;;;;2.02;67.40;93816.68;826552;71;31017;-76
2021/11/30 14:46:10;;;;;;;6.97;6.25;;;;;;;1.84;67.47;93837.27;800053;74;30391;-77
2021/11/30 17:01:49;;;;;;;6.40;5.80;;;;;;;1.58;66.98;93971.54;827935;71;32795;-79
